createdAt,value
2019-02-05T00:01:26.749Z,11.47
2019-02-05T00:03:56.073Z,8.90
2019-02-05T00:06:25.412Z,9.90
2019-02-05T00:08:54.887Z,9.40
2019-02-05T00:11:24.231Z,8.08
2019-02-05T00:13:53.554Z,9.80
2019-02-05T00:16:23.192Z,9.28
2019-02-05T00:18:52.552Z,14.90
2019-02-05T00:21:22.439Z,10.20
2019-02-05T00:23:52.176Z,9.57
2019-02-05T00:26:22.293Z,12.98
2019-02-05T00:28:51.825Z,16.47
2019-02-05T00:31:21.522Z,16.87
2019-02-05T00:33:51.019Z,15.10
2019-02-05T00:36:20.671Z,6.87
2019-02-05T00:38:50.044Z,10.30
2019-02-05T00:41:19.680Z,13.90
2019-02-05T00:43:49.088Z,13.50
2019-02-05T00:46:18.443Z,14.13
2019-02-05T00:48:48.165Z,10.10
2019-02-05T00:51:17.742Z,12.07
2019-02-05T00:53:47.090Z,12.27
2019-02-05T00:56:17.876Z,11.57
2019-02-05T00:58:47.557Z,12.90
2019-02-05T01:01:17.088Z,10.63
2019-02-05T01:03:48.385Z,7.30
2019-02-05T01:06:18.252Z,11.27
2019-02-05T01:08:47.910Z,14.50
2019-02-05T01:11:17.848Z,8.80
2019-02-05T01:13:47.227Z,16.77
2019-02-05T01:16:16.565Z,10.93
2019-02-05T01:18:48.160Z,11.20
2019-02-05T01:21:17.488Z,10.87
2019-02-05T01:23:47.195Z,15.50
2019-02-05T01:26:28.677Z,8.60
2019-02-05T01:28:48.842Z,14.80
2019-02-05T01:31:18.478Z,13.27
2019-02-05T01:33:48.228Z,12.90
2019-02-05T01:36:17.506Z,15.17
2019-02-05T01:38:48.190Z,13.50
2019-02-05T01:41:17.810Z,12.87
2019-02-05T01:43:48.350Z,17.67
2019-02-05T01:46:17.919Z,13.53
2019-02-05T01:48:47.327Z,14.03
2019-02-05T01:51:16.677Z,15.67
2019-02-05T01:53:46.215Z,12.97
2019-02-05T01:56:16.531Z,14.03
2019-02-05T01:58:46.352Z,20.30
2019-02-05T02:01:16.697Z,14.73
2019-02-05T02:03:46.332Z,12.77
2019-02-05T02:06:16.665Z,12.68
2019-02-05T02:08:46.319Z,16.57
2019-02-05T02:11:16.809Z,17.48
2019-02-05T02:13:46.446Z,15.90
2019-02-05T02:16:16.684Z,16.15
2019-02-05T02:18:46.319Z,14.13
2019-02-05T02:21:16.628Z,14.33
2019-02-05T02:23:46.497Z,12.10
2019-02-05T02:26:16.588Z,15.88
2019-02-05T02:28:46.169Z,9.30
2019-02-05T02:31:15.508Z,16.03
2019-02-05T02:33:45.152Z,15.20
2019-02-05T02:36:14.495Z,12.90
2019-02-05T02:38:43.839Z,13.20
2019-02-05T02:41:13.398Z,9.00
2019-02-05T02:43:42.739Z,14.97
2019-02-05T02:46:12.639Z,17.23
2019-02-05T02:48:42.287Z,12.05
2019-02-05T02:51:12.644Z,15.43
2019-02-05T02:53:42.534Z,16.67
2019-02-05T02:56:11.877Z,18.53
2019-02-05T02:58:41.428Z,15.60
2019-02-05T03:01:11.829Z,17.47
2019-02-05T03:03:41.327Z,11.07
2019-02-05T03:06:10.662Z,17.13
2019-02-05T03:08:41.284Z,16.23
2019-02-05T03:11:10.629Z,15.70
2019-02-05T03:13:40.286Z,16.48
2019-02-05T03:16:10.692Z,15.93
2019-02-05T03:18:42.453Z,15.13
2019-02-05T03:21:11.783Z,18.20
2019-02-05T03:23:41.434Z,15.67
2019-02-05T03:26:10.774Z,15.23
2019-02-05T03:28:40.736Z,15.20
2019-02-05T03:31:10.379Z,16.75
2019-02-05T03:33:39.738Z,17.40
2019-02-05T03:36:09.366Z,20.30
2019-02-05T03:38:38.717Z,20.70
2019-02-05T03:41:08.363Z,16.95
2019-02-05T03:43:37.713Z,18.33
2019-02-05T03:46:07.968Z,21.00
2019-02-05T03:48:37.638Z,19.93
2019-02-05T03:51:10.147Z,16.60
2019-02-05T03:53:48.625Z,24.00
2019-02-05T03:56:40.855Z,18.43
2019-02-05T03:59:28.843Z,15.30
2019-02-05T04:02:21.915Z,25.63
2019-02-05T04:05:12.834Z,23.40
2019-02-05T04:07:54.597Z,23.80
2019-02-05T04:10:43.737Z,23.00
2019-02-05T04:13:43.475Z,27.90
2019-02-05T04:16:41.948Z,27.10
2019-02-05T04:19:32.395Z,26.48
2019-02-05T04:22:22.801Z,26.63
2019-02-05T04:25:14.824Z,26.23
2019-02-05T04:27:53.241Z,24.90
2019-02-05T04:30:32.012Z,25.20
2019-02-05T04:33:22.451Z,27.20
2019-02-05T04:36:17.467Z,18.50
2019-02-05T04:38:52.624Z,20.47
2019-02-05T04:41:40.823Z,22.87
2019-02-05T04:44:13.882Z,30.55
2019-02-05T04:47:05.611Z,22.33
2019-02-05T04:49:38.449Z,23.97
2019-02-05T04:52:13.975Z,29.23
2019-02-05T04:55:07.888Z,31.00
2019-02-05T04:58:01.994Z,28.02
2019-02-05T05:00:54.325Z,34.85
2019-02-05T05:03:43.934Z,34.73
2019-02-05T05:06:34.855Z,38.85
2019-02-05T05:09:11.027Z,32.67
2019-02-05T05:11:41.656Z,37.03
2019-02-05T05:14:11.821Z,34.67
2019-02-05T05:16:41.173Z,46.43
2019-02-05T05:19:11.551Z,50.77
2019-02-05T05:21:41.160Z,50.77
2019-02-05T05:24:12.073Z,44.50
2019-02-05T05:26:41.722Z,47.87
2019-02-05T05:29:11.081Z,49.73
2019-02-05T05:31:40.844Z,45.43
2019-02-05T05:34:10.448Z,39.50
2019-02-05T05:36:50.330Z,49.77
2019-02-05T05:39:21.181Z,45.15
2019-02-05T05:41:51.694Z,48.30
2019-02-05T05:44:21.052Z,46.77
2019-02-05T05:46:50.401Z,43.77
2019-02-05T05:49:20.486Z,37.00
2019-02-05T05:51:50.781Z,53.57
2019-02-05T05:54:20.607Z,49.23
2019-02-05T05:56:50.268Z,54.07
2019-02-05T05:59:20.111Z,58.43
2019-02-05T06:01:49.980Z,49.10
2019-02-05T06:04:19.342Z,45.37
2019-02-05T06:06:49.031Z,44.93
2019-02-05T06:09:19.031Z,50.70
2019-02-05T06:11:48.660Z,47.35
2019-02-05T06:14:18.319Z,51.43
2019-02-05T06:16:47.940Z,48.63
2019-02-05T06:19:28.652Z,45.87
2019-02-05T06:21:58.935Z,50.00
2019-02-05T06:24:28.307Z,50.67
2019-02-05T06:26:58.124Z,49.27
2019-02-05T06:29:28.076Z,51.18
2019-02-05T06:31:57.409Z,48.23
2019-02-05T06:34:27.137Z,58.50
2019-02-05T06:36:56.798Z,36.58
2019-02-05T06:39:26.365Z,51.10
2019-02-05T06:41:55.971Z,49.63
2019-02-05T06:44:26.289Z,48.70
2019-02-05T06:46:56.058Z,51.08
2019-02-05T06:49:25.977Z,55.38
2019-02-05T06:51:55.368Z,50.13
2019-02-05T06:54:25.004Z,49.83
2019-02-05T06:56:54.603Z,47.73
2019-02-05T06:59:24.315Z,50.33
2019-02-05T07:01:53.976Z,49.67
2019-02-05T07:04:24.002Z,43.10
2019-02-05T07:06:53.371Z,49.60
2019-02-05T07:09:23.014Z,49.75
2019-02-05T07:11:52.376Z,49.50
2019-02-05T07:14:22.019Z,51.70
2019-02-05T07:16:51.384Z,50.80
2019-02-05T07:19:21.026Z,45.53
2019-02-05T07:21:50.667Z,47.90
2019-02-05T07:24:20.604Z,46.37
2019-02-05T07:26:50.036Z,41.73
2019-02-05T07:29:19.367Z,53.87
2019-02-05T07:31:49.052Z,45.00
2019-02-05T07:34:21.227Z,40.67
2019-02-05T07:36:49.752Z,48.57
2019-02-05T07:39:19.315Z,43.07
2019-02-05T07:41:48.685Z,45.57
2019-02-05T07:44:18.350Z,40.77
2019-02-05T07:46:47.978Z,41.70
2019-02-05T07:49:17.512Z,43.57
2019-02-05T07:51:46.964Z,44.10
2019-02-05T07:54:17.382Z,39.67
2019-02-05T07:56:47.280Z,44.27
2019-02-05T07:59:17.407Z,37.25
2019-02-05T08:01:47.076Z,39.70
2019-02-05T08:04:16.419Z,34.83
2019-02-05T08:06:46.065Z,37.40
2019-02-05T08:09:15.419Z,33.83
2019-02-05T08:11:44.998Z,35.67
2019-02-05T08:14:14.416Z,36.43
2019-02-05T08:16:44.316Z,40.80
2019-02-05T08:19:15.291Z,36.50
2019-02-05T08:21:44.932Z,35.38
2019-02-05T08:24:14.289Z,31.67
2019-02-05T08:26:43.658Z,36.03
2019-02-05T08:29:21.356Z,23.70
2019-02-05T08:31:44.348Z,33.47
2019-02-05T08:34:14.519Z,30.97
2019-02-05T08:36:44.305Z,33.37
2019-02-05T08:39:14.505Z,30.17
2019-02-05T08:41:44.057Z,34.00
2019-02-05T08:44:13.984Z,30.63
2019-02-05T08:46:43.567Z,30.13
2019-02-05T08:49:13.428Z,32.77
2019-02-05T08:51:43.318Z,34.38
2019-02-05T08:54:12.674Z,39.57
2019-02-05T08:56:42.151Z,35.27
2019-02-05T08:59:12.504Z,37.37
2019-02-05T09:01:42.158Z,26.07
2019-02-05T09:04:11.495Z,36.60
2019-02-05T09:06:41.161Z,44.40
2019-02-05T09:09:10.501Z,34.27
2019-02-05T09:11:40.155Z,28.43
2019-02-05T09:14:11.687Z,40.47
2019-02-05T09:16:40.537Z,27.37
2019-02-05T09:19:10.184Z,37.42
2019-02-05T09:21:44.162Z,27.87
2019-02-05T09:24:15.431Z,30.17
2019-02-05T09:26:45.086Z,24.77
2019-02-05T09:29:14.446Z,32.43
2019-02-05T09:31:44.414Z,38.37
2019-02-05T09:34:13.753Z,34.40
2019-02-05T09:36:43.288Z,37.63
2019-02-05T09:39:12.652Z,29.43
2019-02-05T09:41:42.250Z,32.93
2019-02-05T09:44:11.590Z,36.23
2019-02-05T09:46:41.914Z,35.53
2019-02-05T09:49:11.336Z,25.40
2019-02-05T09:51:40.686Z,37.43
2019-02-05T09:54:10.296Z,33.07
2019-02-05T09:56:41.439Z,19.63
2019-02-05T09:59:10.791Z,28.33
2019-02-05T10:01:41.439Z,34.90
2019-02-05T10:04:10.775Z,24.30
2019-02-05T10:06:40.409Z,38.70
2019-02-05T10:09:09.816Z,19.57
2019-02-05T10:11:39.385Z,26.80
2019-02-05T10:14:08.727Z,37.60
2019-02-05T10:16:38.377Z,37.58
2019-02-05T10:19:08.366Z,34.13
2019-02-05T10:21:37.970Z,30.33
2019-02-05T10:24:07.381Z,32.37
2019-02-05T10:26:36.746Z,32.60
2019-02-05T10:29:06.621Z,14.93
2019-02-05T10:31:35.995Z,33.67
2019-02-05T10:34:05.506Z,30.87
2019-02-05T10:36:35.106Z,21.93
2019-02-05T10:39:07.641Z,34.50
2019-02-05T10:41:37.000Z,32.60
2019-02-05T10:44:06.474Z,21.87
2019-02-05T10:46:35.827Z,32.10
2019-02-05T10:49:05.748Z,37.07
2019-02-05T10:51:35.478Z,27.27
2019-02-05T10:54:05.087Z,29.70
2019-02-05T10:56:34.619Z,29.47
2019-02-05T10:59:04.334Z,34.35
2019-02-05T11:01:33.756Z,31.03
2019-02-05T11:04:03.501Z,35.53
2019-02-05T11:06:34.689Z,28.83
2019-02-05T11:09:06.906Z,25.77
2019-02-05T11:11:36.548Z,42.48
2019-02-05T11:14:05.972Z,34.00
2019-02-05T11:16:35.608Z,44.38
2019-02-05T11:19:05.432Z,28.10
2019-02-05T11:21:35.118Z,41.70
2019-02-05T11:24:05.125Z,35.30
2019-02-05T11:26:36.740Z,34.95
2019-02-05T11:29:05.818Z,30.63
2019-02-05T11:31:36.404Z,32.45
2019-02-05T11:34:05.738Z,32.63
2019-02-05T11:36:35.971Z,30.10
2019-02-05T11:39:08.793Z,30.52
2019-02-05T11:41:38.142Z,40.03
2019-02-05T11:44:07.728Z,33.80
2019-02-05T11:46:38.702Z,35.33
2019-02-05T11:49:08.069Z,44.87
2019-02-05T11:51:40.234Z,38.80
2019-02-05T11:54:09.767Z,47.03
2019-02-05T11:56:39.115Z,96.30
2019-02-05T11:59:21.171Z,112.77
2019-02-05T12:01:50.674Z,58.60
2019-02-05T12:04:20.836Z,56.73
2019-02-05T12:06:50.610Z,32.80
2019-02-05T12:09:20.527Z,43.17
2019-02-05T12:11:49.867Z,40.90
2019-02-05T12:14:19.219Z,33.87
2019-02-05T12:16:48.949Z,33.57
2019-02-05T12:19:18.589Z,44.10
2019-02-05T12:21:48.191Z,37.83
2019-02-05T12:24:18.072Z,41.17
2019-02-05T12:26:47.733Z,34.48
2019-02-05T12:29:18.138Z,36.42
2019-02-05T12:31:47.673Z,33.80
2019-02-05T12:34:18.445Z,35.98
2019-02-05T12:36:47.785Z,40.20
2019-02-05T12:39:19.857Z,39.27
2019-02-05T12:41:49.297Z,37.80
2019-02-05T12:44:18.954Z,41.50
2019-02-05T12:46:48.598Z,42.13
2019-02-05T12:49:18.152Z,38.10
2019-02-05T12:51:47.807Z,34.37
2019-02-05T12:54:18.113Z,38.02
2019-02-05T12:56:47.754Z,34.48
2019-02-05T12:59:18.284Z,34.15
2019-02-05T13:01:47.858Z,35.10
2019-02-05T13:04:18.271Z,40.95
2019-02-05T13:06:47.751Z,42.30
2019-02-05T13:09:18.134Z,30.00
2019-02-05T13:11:47.789Z,38.20
2019-02-05T13:14:18.204Z,43.17
2019-02-05T13:16:48.081Z,35.73
2019-02-05T13:19:19.154Z,40.28
2019-02-05T13:21:48.856Z,40.83
2019-02-05T13:24:18.216Z,39.13
2019-02-05T13:26:47.903Z,40.53
2019-02-05T13:29:18.310Z,42.10
2019-02-05T13:31:49.755Z,43.77
2019-02-05T13:34:19.182Z,37.87
2019-02-05T13:36:48.790Z,31.30
2019-02-05T13:39:18.446Z,35.27
2019-02-05T13:41:49.463Z,42.83
2019-02-05T13:44:19.126Z,37.90
2019-02-05T13:46:48.768Z,43.90
2019-02-05T13:49:18.409Z,43.47
2019-02-05T13:51:47.867Z,44.23
2019-02-05T13:54:18.262Z,40.52
2019-02-05T13:56:47.908Z,41.35
2019-02-05T13:59:18.337Z,43.92
2019-02-05T14:01:47.995Z,44.42
2019-02-05T14:04:18.385Z,37.10
2019-02-05T14:06:50.466Z,41.10
2019-02-05T14:09:20.181Z,34.30
2019-02-05T14:11:49.521Z,38.20
2019-02-05T14:14:19.355Z,32.33
2019-02-05T14:16:48.692Z,39.90
2019-02-05T14:19:20.996Z,33.97
2019-02-05T14:21:50.333Z,35.17
2019-02-05T14:24:21.411Z,34.30
2019-02-05T14:26:50.990Z,36.67
2019-02-05T14:29:23.846Z,34.20
2019-02-05T14:31:53.618Z,30.53
2019-02-05T14:34:23.269Z,32.45
2019-02-05T14:36:52.611Z,32.00
2019-02-05T14:39:22.406Z,30.48
2019-02-05T14:41:51.751Z,29.63
2019-02-05T14:44:21.479Z,30.27
2019-02-05T14:46:51.182Z,35.57
2019-02-05T14:49:20.547Z,30.17
2019-02-05T14:51:50.138Z,33.30
2019-02-05T14:54:19.901Z,33.03
2019-02-05T14:56:49.256Z,29.90
2019-02-05T14:59:18.619Z,30.87
2019-02-05T15:01:48.258Z,31.67
2019-02-05T15:04:18.612Z,36.10
2019-02-05T15:06:48.172Z,31.80
2019-02-05T15:09:20.090Z,32.23
2019-02-05T15:11:50.348Z,38.60
2019-02-05T15:14:19.691Z,37.43
2019-02-05T15:16:50.943Z,39.27
2019-02-05T15:19:20.470Z,34.67
2019-02-05T15:21:50.072Z,41.37
2019-02-05T15:24:19.782Z,36.47
2019-02-05T15:26:49.283Z,38.67
2019-02-05T15:29:20.272Z,35.60
2019-02-05T15:31:54.547Z,42.50
2019-02-05T15:34:21.153Z,36.73
2019-02-05T15:36:50.493Z,34.10
2019-02-05T15:39:20.127Z,36.48
2019-02-05T15:41:49.535Z,33.67
2019-02-05T15:44:18.839Z,37.63
2019-02-05T15:46:48.281Z,38.33
2019-02-05T15:49:18.573Z,42.55
2019-02-05T15:51:47.920Z,47.30
2019-02-05T15:54:18.839Z,45.40
2019-02-05T15:56:48.760Z,52.53
2019-02-05T15:59:19.020Z,48.87
2019-02-05T16:01:48.564Z,40.90
2019-02-05T16:04:18.720Z,38.98
2019-02-05T16:06:48.379Z,37.63
2019-02-05T16:09:18.865Z,37.30
2019-02-05T16:11:48.605Z,33.67
2019-02-05T16:14:19.549Z,37.15
2019-02-05T16:16:49.198Z,37.40
2019-02-05T16:19:20.082Z,33.33
2019-02-05T16:21:49.672Z,34.80
2019-02-05T16:24:20.242Z,38.83
2019-02-05T16:26:49.772Z,32.60
2019-02-05T16:29:19.443Z,39.85
2019-02-05T16:31:48.783Z,36.50
2019-02-05T16:34:19.714Z,33.92
2019-02-05T16:36:49.415Z,33.53
2019-02-05T16:39:19.655Z,34.60
2019-02-05T16:41:49.314Z,27.22
2019-02-05T16:44:19.904Z,39.53
2019-02-05T16:46:49.564Z,33.83
2019-02-05T16:49:22.548Z,33.30
2019-02-05T16:51:52.288Z,26.00
2019-02-05T16:54:22.747Z,32.03
2019-02-05T16:56:54.061Z,34.30
2019-02-05T16:59:23.696Z,31.13
2019-02-05T17:02:05.358Z,36.33
2019-02-05T17:04:34.696Z,33.00
2019-02-05T17:07:04.780Z,32.43
2019-02-05T17:09:35.497Z,29.75
2019-02-05T17:12:05.428Z,30.33
2019-02-05T17:14:34.764Z,33.73
2019-02-05T17:17:04.135Z,30.73
2019-02-05T17:19:33.775Z,32.00
2019-02-05T17:22:03.756Z,33.23
2019-02-05T17:24:33.397Z,27.00
2019-02-05T17:27:02.767Z,29.23
2019-02-05T17:29:32.673Z,28.67
2019-02-05T17:32:02.027Z,37.97
2019-02-05T17:34:31.665Z,32.20
2019-02-05T17:37:01.260Z,34.70
2019-02-05T17:39:30.884Z,24.73
2019-02-05T17:42:00.577Z,29.87
2019-02-05T17:44:30.212Z,28.23
2019-02-05T17:47:01.211Z,31.37
2019-02-05T17:49:30.904Z,37.60
2019-02-05T17:52:00.558Z,30.20
2019-02-05T17:54:30.122Z,28.67
2019-02-05T17:56:59.894Z,32.27
2019-02-05T17:59:29.231Z,32.20
2019-02-05T18:02:00.874Z,30.67
2019-02-05T18:04:30.792Z,31.00
2019-02-05T18:07:01.301Z,31.73
2019-02-05T18:09:30.932Z,31.70
2019-02-05T18:12:00.649Z,33.85
2019-02-05T18:14:31.241Z,28.80
2019-02-05T18:17:01.080Z,26.47
2019-02-05T18:19:31.648Z,38.88
2019-02-05T18:22:02.511Z,36.07
2019-02-05T18:24:32.561Z,30.88
2019-02-05T18:27:02.631Z,31.80
2019-02-05T18:29:32.061Z,33.30
2019-02-05T18:32:01.991Z,28.20
2019-02-05T18:34:34.094Z,33.88
2019-02-05T18:37:04.048Z,34.73
2019-02-05T18:39:33.995Z,28.10
2019-02-05T18:42:03.881Z,32.38
2019-02-05T18:44:34.513Z,28.17
2019-02-05T18:47:04.090Z,31.47
2019-02-05T18:49:33.727Z,30.48
2019-02-05T18:52:03.113Z,30.13
2019-02-05T18:54:33.026Z,29.15
2019-02-05T18:57:02.678Z,27.93
2019-02-05T18:59:32.305Z,27.93
2019-02-05T19:02:01.960Z,36.53
2019-02-05T19:04:31.304Z,30.00
2019-02-05T19:07:03.755Z,29.23
2019-02-05T19:09:32.261Z,29.80
2019-02-05T19:12:05.182Z,28.50
2019-02-05T19:14:35.401Z,32.40
2019-02-05T19:17:05.040Z,30.97
2019-02-05T19:19:44.221Z,32.05
2019-02-05T19:22:13.986Z,29.27
2019-02-05T19:24:44.965Z,33.83
2019-02-05T19:27:14.840Z,32.80
2019-02-05T19:29:44.176Z,31.20
2019-02-05T19:32:15.216Z,36.60
2019-02-05T19:34:44.559Z,34.13
2019-02-05T19:37:14.099Z,36.07
2019-02-05T19:39:43.463Z,33.60
2019-02-05T19:42:13.166Z,35.67
2019-02-05T19:44:44.702Z,35.52
2019-02-05T19:47:15.737Z,33.17
2019-02-05T19:49:45.156Z,37.63
2019-02-05T19:52:14.777Z,31.40
2019-02-05T19:54:44.363Z,32.03
2019-02-05T19:57:13.930Z,29.83
2019-02-05T19:59:43.923Z,33.40
2019-02-05T20:02:13.275Z,33.80
2019-02-05T20:04:42.927Z,32.38
2019-02-05T20:07:12.266Z,30.20
2019-02-05T20:09:41.921Z,38.05
2019-02-05T20:12:11.251Z,33.33
2019-02-05T20:14:41.319Z,32.37
2019-02-05T20:17:10.664Z,31.67
2019-02-05T20:19:40.623Z,36.20
2019-02-05T20:22:10.132Z,38.27
2019-02-05T20:24:39.527Z,35.07
2019-02-05T20:27:09.042Z,36.67
2019-02-05T20:29:38.394Z,37.30
2019-02-05T20:32:08.180Z,41.00
2019-02-05T20:34:38.242Z,28.17
2019-02-05T20:37:07.879Z,41.42
2019-02-05T20:39:38.304Z,39.70
2019-02-05T20:42:07.930Z,39.05
2019-02-05T20:44:37.678Z,37.23
2019-02-05T20:47:07.473Z,38.60
2019-02-05T20:49:38.950Z,46.42
2019-02-05T20:52:08.309Z,42.10
2019-02-05T20:54:37.693Z,40.00
2019-02-05T20:57:07.313Z,38.80
2019-02-05T20:59:37.270Z,41.02
2019-02-05T21:02:08.255Z,44.47
2019-02-05T21:04:47.883Z,44.73
2019-02-05T21:07:09.557Z,36.90
2019-02-05T21:09:42.120Z,41.23
2019-02-05T21:12:10.526Z,42.33
2019-02-05T21:14:40.175Z,38.53
2019-02-05T21:17:10.771Z,42.97
2019-02-05T21:19:50.088Z,41.57
2019-02-05T21:22:19.567Z,46.23
2019-02-05T21:24:49.215Z,53.65
2019-02-05T21:27:19.778Z,53.23
2019-02-05T21:29:49.186Z,45.83
2019-02-05T21:32:19.541Z,52.55
2019-02-05T21:34:49.190Z,54.98
2019-02-05T21:37:20.168Z,47.43
2019-02-05T21:39:49.575Z,48.77
2019-02-05T21:42:19.557Z,45.58
2019-02-05T21:44:49.196Z,51.55
2019-02-05T21:47:19.657Z,43.33
2019-02-05T21:49:49.253Z,52.20
2019-02-05T21:52:19.578Z,54.08
2019-02-05T21:54:50.260Z,47.75
2019-02-05T21:57:19.644Z,52.80
2019-02-05T21:59:49.368Z,51.68
2019-02-05T22:02:19.664Z,54.10
2019-02-05T22:04:49.276Z,62.23
2019-02-05T22:07:19.637Z,60.00
2019-02-05T22:09:59.727Z,59.10
2019-02-05T22:12:30.405Z,61.70
2019-02-05T22:15:00.019Z,63.80
2019-02-05T22:17:29.642Z,60.93
2019-02-05T22:20:16.806Z,61.42
2019-02-05T22:22:46.257Z,62.13
2019-02-05T22:25:19.089Z,63.60
2019-02-05T22:27:48.446Z,64.20
2019-02-05T22:30:22.598Z,69.10
2019-02-05T22:32:51.946Z,65.80
2019-02-05T22:35:21.838Z,60.03
2019-02-05T22:37:51.796Z,66.23
2019-02-05T22:40:23.196Z,68.07
2019-02-05T22:42:52.713Z,63.97
2019-02-05T22:45:24.962Z,64.80
2019-02-05T22:47:54.470Z,73.40
2019-02-05T22:50:26.562Z,63.03
2019-02-05T22:52:55.910Z,64.23
2019-02-05T22:55:25.622Z,66.70
2019-02-05T22:57:55.247Z,63.90
2019-02-05T23:00:32.524Z,64.27
2019-02-05T23:03:01.880Z,72.43
2019-02-05T23:05:43.971Z,64.47
2019-02-05T23:08:13.365Z,63.20
2019-02-05T23:11:03.204Z,65.17
2019-02-05T23:13:25.701Z,62.40
2019-02-05T23:15:55.639Z,61.10
2019-02-05T23:18:25.609Z,61.90
2019-02-05T23:20:55.023Z,60.07
2019-02-05T23:23:24.848Z,62.23
2019-02-05T23:25:54.716Z,63.27
2019-02-05T23:28:24.357Z,55.78
2019-02-05T23:30:53.893Z,56.33
2019-02-05T23:33:23.717Z,60.80
2019-02-05T23:35:53.073Z,61.93
2019-02-05T23:38:29.739Z,59.37
2019-02-05T23:40:54.037Z,55.07
2019-02-05T23:43:23.706Z,56.15
2019-02-05T23:46:01.334Z,58.98
2019-02-05T23:48:24.680Z,61.47
2019-02-05T23:50:54.304Z,53.70
2019-02-05T23:53:23.816Z,53.57
2019-02-05T23:55:54.438Z,56.95
2019-02-05T23:58:23.807Z,62.20
